sensor_id;sensor_type;location;lat;lon;timestamp;temperature;humidity
61807;DHT22;47726;52.766;6.606;2022-11-20T00:00:09;0.60;99.90
61807;DHT22;47726;52.766;6.606;2022-11-20T00:02:35;0.60;99.90
61807;DHT22;47726;52.766;6.606;2022-11-20T00:05:01;0.60;99.90
61807;DHT22;47726;52.766;6.606;2022-11-20T00:07:26;0.50;99.90
61807;DHT22;47726;52.766;6.606;2022-11-20T00:09:52;0.60;99.90
61807;DHT22;47726;52.766;6.606;2022-11-20T00:12:18;0.50;99.90
61807;DHT22;47726;52.766;6.606;2022-11-20T00:14:43;0.50;99.90
61807;DHT22;47726;52.766;6.606;2022-11-20T00:17:09;0.50;99.90
61807;DHT22;47726;52.766;6.606;2022-11-20T00:19:34;0.50;99.90
61807;DHT22;47726;52.766;6.606;2022-11-20T00:22:00;0.50;99.90
61807;DHT22;47726;52.766;6.606;2022-11-20T00:24:26;0.50;99.90
61807;DHT22;47726;52.766;6.606;2022-11-20T00:26:51;0.50;99.90
61807;DHT22;47726;52.766;6.606;2022-11-20T00:29:17;0.60;99.90
61807;DHT22;47726;52.766;6.606;2022-11-20T00:31:42;0.50;99.90
61807;DHT22;47726;52.766;6.606;2022-11-20T00:34:09;0.50;99.90
61807;DHT22;47726;52.766;6.606;2022-11-20T00:36:35;0.50;99.90
61807;DHT22;47726;52.766;6.606;2022-11-20T00:39:01;0.50;99.90
61807;DHT22;47726;52.766;6.606;2022-11-20T00:41:28;0.60;99.90
61807;DHT22;47726;52.766;6.606;2022-11-20T00:43:55;0.60;99.90
61807;DHT22;47726;52.766;6.606;2022-11-20T00:46:26;0.60;99.90
61807;DHT22;47726;52.766;6.606;2022-11-20T00:48:52;0.60;99.90
61807;DHT22;47726;52.766;6.606;2022-11-20T00:51:20;0.60;99.90
61807;DHT22;47726;52.766;6.606;2022-11-20T00:53:47;0.60;99.90
61807;DHT22;47726;52.766;6.606;2022-11-20T00:56:16;0.60;99.90
61807;DHT22;47726;52.766;6.606;2022-11-20T00:58:44;0.60;99.90
61807;DHT22;47726;52.766;6.606;2022-11-20T01:01:22;0.70;99.90
61807;DHT22;47726;52.766;6.606;2022-11-20T01:03:50;0.70;99.90
61807;DHT22;47726;52.766;6.606;2022-11-20T01:06:25;0.70;99.90
61807;DHT22;47726;52.766;6.606;2022-11-20T01:08:54;0.70;99.90
61807;DHT22;47726;52.766;6.606;2022-11-20T01:11:23;0.70;99.90
61807;DHT22;47726;52.766;6.606;2022-11-20T01:13:50;0.70;99.90
61807;DHT22;47726;52.766;6.606;2022-11-20T01:16:22;0.80;99.90
61807;DHT22;47726;52.766;6.606;2022-11-20T01:18:50;0.80;99.90
61807;DHT22;47726;52.766;6.606;2022-11-20T01:21:39;0.80;99.90
61807;DHT22;47726;52.766;6.606;2022-11-20T01:24:06;0.80;99.90
61807;DHT22;47726;52.766;6.606;2022-11-20T01:26:35;0.80;99.90
61807;DHT22;47726;52.766;6.606;2022-11-20T01:29:02;0.80;99.90
61807;DHT22;47726;52.766;6.606;2022-11-20T01:31:30;0.80;99.90
61807;DHT22;47726;52.766;6.606;2022-11-20T01:33:59;0.90;99.90
61807;DHT22;47726;52.766;6.606;2022-11-20T01:36:27;0.90;99.90
61807;DHT22;47726;52.766;6.606;2022-11-20T01:38:55;0.90;99.90
61807;DHT22;47726;52.766;6.606;2022-11-20T01:41:22;0.90;99.90
61807;DHT22;47726;52.766;6.606;2022-11-20T01:44:07;0.90;99.90
61807;DHT22;47726;52.766;6.606;2022-11-20T01:46:38;0.90;99.90
61807;DHT22;47726;52.766;6.606;2022-11-20T01:49:15;0.90;99.90
61807;DHT22;47726;52.766;6.606;2022-11-20T01:51:50;1.00;99.90
61807;DHT22;47726;52.766;6.606;2022-11-20T01:54:21;1.00;99.90
61807;DHT22;47726;52.766;6.606;2022-11-20T01:56:50;1.00;99.90
61807;DHT22;47726;52.766;6.606;2022-11-20T01:59:18;1.00;99.90
61807;DHT22;47726;52.766;6.606;2022-11-20T02:01:44;1.00;99.90
61807;DHT22;47726;52.766;6.606;2022-11-20T02:04:10;1.00;99.90
61807;DHT22;47726;52.766;6.606;2022-11-20T02:06:44;1.00;99.90
61807;DHT22;47726;52.766;6.606;2022-11-20T02:09:11;1.10;99.90
61807;DHT22;47726;52.766;6.606;2022-11-20T02:11:37;1.10;99.90
61807;DHT22;47726;52.766;6.606;2022-11-20T02:14:03;1.10;99.90
61807;DHT22;47726;52.766;6.606;2022-11-20T02:16:31;1.10;99.90
61807;DHT22;47726;52.766;6.606;2022-11-20T02:19:01;1.10;99.90
61807;DHT22;47726;52.766;6.606;2022-11-20T02:21:49;1.10;99.90
61807;DHT22;47726;52.766;6.606;2022-11-20T02:24:18;1.20;99.90
61807;DHT22;47726;52.766;6.606;2022-11-20T02:27:00;1.20;99.90
61807;DHT22;47726;52.766;6.606;2022-11-20T02:29:53;1.20;99.90
61807;DHT22;47726;52.766;6.606;2022-11-20T02:32:27;1.20;99.90
61807;DHT22;47726;52.766;6.606;2022-11-20T02:34:53;1.20;99.90
61807;DHT22;47726;52.766;6.606;2022-11-20T02:37:19;1.20;99.90
61807;DHT22;47726;52.766;6.606;2022-11-20T02:39:49;1.20;99.90
61807;DHT22;47726;52.766;6.606;2022-11-20T02:42:15;1.30;99.90
61807;DHT22;47726;52.766;6.606;2022-11-20T02:44:41;1.30;99.90
61807;DHT22;47726;52.766;6.606;2022-11-20T02:47:06;1.30;99.90
61807;DHT22;47726;52.766;6.606;2022-11-20T02:49:32;1.30;99.90
61807;DHT22;47726;52.766;6.606;2022-11-20T02:51:58;1.30;99.90
61807;DHT22;47726;52.766;6.606;2022-11-20T02:54:24;1.30;99.90
61807;DHT22;47726;52.766;6.606;2022-11-20T02:56:50;1.30;99.90
61807;DHT22;47726;52.766;6.606;2022-11-20T02:59:16;1.30;99.90
61807;DHT22;47726;52.766;6.606;2022-11-20T03:01:41;1.40;99.90
61807;DHT22;47726;52.766;6.606;2022-11-20T03:04:07;1.30;99.90
61807;DHT22;47726;52.766;6.606;2022-11-20T03:06:33;1.40;99.90
61807;DHT22;47726;52.766;6.606;2022-11-20T03:08:59;1.40;99.90
61807;DHT22;47726;52.766;6.606;2022-11-20T03:11:28;1.40;99.90
61807;DHT22;47726;52.766;6.606;2022-11-20T03:13:53;1.40;99.90
61807;DHT22;47726;52.766;6.606;2022-11-20T03:16:21;1.40;99.90
61807;DHT22;47726;52.766;6.606;2022-11-20T03:18:47;1.40;99.90
61807;DHT22;47726;52.766;6.606;2022-11-20T03:21:14;1.40;99.90
61807;DHT22;47726;52.766;6.606;2022-11-20T03:23:40;1.50;99.90
61807;DHT22;47726;52.766;6.606;2022-11-20T03:26:17;1.40;99.90
61807;DHT22;47726;52.766;6.606;2022-11-20T03:31:18;1.50;99.90
61807;DHT22;47726;52.766;6.606;2022-11-20T03:33:44;1.50;99.90
61807;DHT22;47726;52.766;6.606;2022-11-20T03:36:11;1.50;99.90
61807;DHT22;47726;52.766;6.606;2022-11-20T03:38:38;1.50;99.90
61807;DHT22;47726;52.766;6.606;2022-11-20T03:41:11;1.50;99.90
61807;DHT22;47726;52.766;6.606;2022-11-20T03:43:38;1.50;99.90
61807;DHT22;47726;52.766;6.606;2022-11-20T03:46:04;1.60;99.90
61807;DHT22;47726;52.766;6.606;2022-11-20T03:48:30;1.60;99.90
61807;DHT22;47726;52.766;6.606;2022-11-20T03:53:35;1.60;99.90
61807;DHT22;47726;52.766;6.606;2022-11-20T03:56:00;1.60;99.90
61807;DHT22;47726;52.766;6.606;2022-11-20T03:58:26;1.60;99.90
61807;DHT22;47726;52.766;6.606;2022-11-20T04:00:52;1.60;99.90
61807;DHT22;47726;52.766;6.606;2022-11-20T04:03:17;1.60;99.90
61807;DHT22;47726;52.766;6.606;2022-11-20T04:05:43;1.60;99.90
61807;DHT22;47726;52.766;6.606;2022-11-20T04:08:09;1.60;99.90
61807;DHT22;47726;52.766;6.606;2022-11-20T04:10:34;1.60;99.90
61807;DHT22;47726;52.766;6.606;2022-11-20T04:13:00;1.60;99.90
61807;DHT22;47726;52.766;6.606;2022-11-20T04:15:25;1.70;99.90
61807;DHT22;47726;52.766;6.606;2022-11-20T04:17:51;1.60;99.90
61807;DHT22;47726;52.766;6.606;2022-11-20T04:20:17;1.70;99.90
61807;DHT22;47726;52.766;6.606;2022-11-20T04:22:42;1.70;99.90
61807;DHT22;47726;52.766;6.606;2022-11-20T04:25:08;1.70;99.90
61807;DHT22;47726;52.766;6.606;2022-11-20T04:27:34;1.70;99.90
61807;DHT22;47726;52.766;6.606;2022-11-20T04:29:59;1.70;99.90
61807;DHT22;47726;52.766;6.606;2022-11-20T04:32:25;1.70;99.90
61807;DHT22;47726;52.766;6.606;2022-11-20T04:34:51;1.70;99.90
61807;DHT22;47726;52.766;6.606;2022-11-20T04:37:16;1.70;99.90
61807;DHT22;47726;52.766;6.606;2022-11-20T04:39:42;1.70;99.90
61807;DHT22;47726;52.766;6.606;2022-11-20T04:42:09;1.70;99.90
61807;DHT22;47726;52.766;6.606;2022-11-20T04:44:54;1.70;99.90
61807;DHT22;47726;52.766;6.606;2022-11-20T04:47:20;1.70;99.90
61807;DHT22;47726;52.766;6.606;2022-11-20T04:49:46;1.80;99.90
61807;DHT22;47726;52.766;6.606;2022-11-20T04:52:11;1.70;99.90
61807;DHT22;47726;52.766;6.606;2022-11-20T04:54:37;1.80;99.90
61807;DHT22;47726;52.766;6.606;2022-11-20T04:57:03;1.80;99.90
61807;DHT22;47726;52.766;6.606;2022-11-20T04:59:28;1.80;99.90
61807;DHT22;47726;52.766;6.606;2022-11-20T05:01:54;1.80;99.90
61807;DHT22;47726;52.766;6.606;2022-11-20T05:04:19;1.80;99.90
61807;DHT22;47726;52.766;6.606;2022-11-20T05:06:45;1.80;99.90
61807;DHT22;47726;52.766;6.606;2022-11-20T05:09:11;1.80;99.90
61807;DHT22;47726;52.766;6.606;2022-11-20T05:11:37;1.80;99.90
61807;DHT22;47726;52.766;6.606;2022-11-20T05:14:03;1.80;99.90
61807;DHT22;47726;52.766;6.606;2022-11-20T05:16:29;1.80;99.90
61807;DHT22;47726;52.766;6.606;2022-11-20T05:18:56;1.80;99.90
61807;DHT22;47726;52.766;6.606;2022-11-20T05:21:22;1.80;99.90
61807;DHT22;47726;52.766;6.606;2022-11-20T05:23:48;1.80;99.90
61807;DHT22;47726;52.766;6.606;2022-11-20T05:26:19;1.80;99.90
61807;DHT22;47726;52.766;6.606;2022-11-20T05:28:45;1.80;99.90
61807;DHT22;47726;52.766;6.606;2022-11-20T05:31:13;1.90;99.90
61807;DHT22;47726;52.766;6.606;2022-11-20T05:33:41;1.90;99.90
61807;DHT22;47726;52.766;6.606;2022-11-20T05:36:07;1.90;99.90
61807;DHT22;47726;52.766;6.606;2022-11-20T05:38:33;1.90;99.90
61807;DHT22;47726;52.766;6.606;2022-11-20T05:43:34;1.90;99.90
61807;DHT22;47726;52.766;6.606;2022-11-20T05:46:00;1.90;99.90
61807;DHT22;47726;52.766;6.606;2022-11-20T05:48:26;1.90;99.90
61807;DHT22;47726;52.766;6.606;2022-11-20T05:50:52;1.90;99.90
61807;DHT22;47726;52.766;6.606;2022-11-20T05:53:17;1.90;99.90
61807;DHT22;47726;52.766;6.606;2022-11-20T05:55:43;1.90;99.90
61807;DHT22;47726;52.766;6.606;2022-11-20T05:58:09;1.90;99.90
61807;DHT22;47726;52.766;6.606;2022-11-20T06:00:35;1.90;99.90
61807;DHT22;47726;52.766;6.606;2022-11-20T06:03:01;1.90;99.90
61807;DHT22;47726;52.766;6.606;2022-11-20T06:05:26;1.90;99.90
61807;DHT22;47726;52.766;6.606;2022-11-20T06:07:52;1.90;99.90
61807;DHT22;47726;52.766;6.606;2022-11-20T06:10:18;1.90;99.90
61807;DHT22;47726;52.766;6.606;2022-11-20T06:12:43;1.90;99.90
61807;DHT22;47726;52.766;6.606;2022-11-20T06:15:09;1.90;99.90
61807;DHT22;47726;52.766;6.606;2022-11-20T06:17:35;1.90;99.90
61807;DHT22;47726;52.766;6.606;2022-11-20T06:20:01;1.90;99.90
61807;DHT22;47726;52.766;6.606;2022-11-20T06:22:26;1.90;99.90
61807;DHT22;47726;52.766;6.606;2022-11-20T06:24:52;1.90;99.90
61807;DHT22;47726;52.766;6.606;2022-11-20T06:27:17;1.90;99.90
61807;DHT22;47726;52.766;6.606;2022-11-20T06:29:43;1.90;99.90
61807;DHT22;47726;52.766;6.606;2022-11-20T06:32:09;1.90;99.90
61807;DHT22;47726;52.766;6.606;2022-11-20T06:34:34;1.90;99.90
61807;DHT22;47726;52.766;6.606;2022-11-20T06:37:00;1.90;99.90
61807;DHT22;47726;52.766;6.606;2022-11-20T06:39:25;1.90;99.90
61807;DHT22;47726;52.766;6.606;2022-11-20T06:41:51;1.90;99.90
61807;DHT22;47726;52.766;6.606;2022-11-20T06:44:17;2.00;99.90
61807;DHT22;47726;52.766;6.606;2022-11-20T06:46:42;2.00;99.90
61807;DHT22;47726;52.766;6.606;2022-11-20T06:49:08;2.00;99.90
61807;DHT22;47726;52.766;6.606;2022-11-20T06:51:33;2.00;99.90
61807;DHT22;47726;52.766;6.606;2022-11-20T06:53:59;2.00;99.90
61807;DHT22;47726;52.766;6.606;2022-11-20T06:56:26;2.00;99.90
61807;DHT22;47726;52.766;6.606;2022-11-20T06:58:52;2.00;99.90
61807;DHT22;47726;52.766;6.606;2022-11-20T07:01:17;2.00;99.90
61807;DHT22;47726;52.766;6.606;2022-11-20T07:03:43;2.00;99.90
61807;DHT22;47726;52.766;6.606;2022-11-20T07:06:09;2.00;99.90
61807;DHT22;47726;52.766;6.606;2022-11-20T07:08:36;2.00;99.90
61807;DHT22;47726;52.766;6.606;2022-11-20T07:11:04;2.00;99.90
61807;DHT22;47726;52.766;6.606;2022-11-20T07:13:30;2.00;99.90
61807;DHT22;47726;52.766;6.606;2022-11-20T07:16:00;2.00;99.90
61807;DHT22;47726;52.766;6.606;2022-11-20T07:18:27;2.00;99.90
61807;DHT22;47726;52.766;6.606;2022-11-20T07:20:52;2.00;99.90
61807;DHT22;47726;52.766;6.606;2022-11-20T07:23:18;2.00;99.90
61807;DHT22;47726;52.766;6.606;2022-11-20T07:25:44;2.00;99.90
61807;DHT22;47726;52.766;6.606;2022-11-20T07:28:09;2.00;99.90
61807;DHT22;47726;52.766;6.606;2022-11-20T07:30:36;2.10;99.90
61807;DHT22;47726;52.766;6.606;2022-11-20T07:33:02;2.00;99.90
61807;DHT22;47726;52.766;6.606;2022-11-20T07:35:27;2.10;99.90
61807;DHT22;47726;52.766;6.606;2022-11-20T07:37:56;2.00;99.90
61807;DHT22;47726;52.766;6.606;2022-11-20T07:40:21;2.10;99.90
61807;DHT22;47726;52.766;6.606;2022-11-20T07:42:52;2.00;99.90
61807;DHT22;47726;52.766;6.606;2022-11-20T07:45:19;2.10;99.90
61807;DHT22;47726;52.766;6.606;2022-11-20T07:47:44;2.00;99.90
61807;DHT22;47726;52.766;6.606;2022-11-20T07:50:11;2.00;99.90
61807;DHT22;47726;52.766;6.606;2022-11-20T07:52:37;2.00;99.90
61807;DHT22;47726;52.766;6.606;2022-11-20T07:55:02;2.00;99.90
61807;DHT22;47726;52.766;6.606;2022-11-20T07:57:28;2.00;99.90
61807;DHT22;47726;52.766;6.606;2022-11-20T07:59:54;2.10;99.90
61807;DHT22;47726;52.766;6.606;2022-11-20T08:02:19;2.10;99.90
61807;DHT22;47726;52.766;6.606;2022-11-20T08:04:45;2.10;99.90
61807;DHT22;47726;52.766;6.606;2022-11-20T08:07:10;2.10;99.90
61807;DHT22;47726;52.766;6.606;2022-11-20T08:09:36;2.10;99.90
61807;DHT22;47726;52.766;6.606;2022-11-20T08:12:02;2.10;99.90
61807;DHT22;47726;52.766;6.606;2022-11-20T08:14:46;2.10;99.90
61807;DHT22;47726;52.766;6.606;2022-11-20T08:17:11;2.10;99.90
61807;DHT22;47726;52.766;6.606;2022-11-20T08:19:37;2.20;99.90
61807;DHT22;47726;52.766;6.606;2022-11-20T08:22:03;2.20;99.90
61807;DHT22;47726;52.766;6.606;2022-11-20T08:24:29;2.20;99.90
61807;DHT22;47726;52.766;6.606;2022-11-20T08:26:57;2.20;99.90
61807;DHT22;47726;52.766;6.606;2022-11-20T08:29:24;2.20;99.90
61807;DHT22;47726;52.766;6.606;2022-11-20T08:31:49;2.20;99.90
61807;DHT22;47726;52.766;6.606;2022-11-20T08:34:15;2.20;99.90
61807;DHT22;47726;52.766;6.606;2022-11-20T08:36:41;2.20;99.90
61807;DHT22;47726;52.766;6.606;2022-11-20T08:39:06;2.20;99.90
61807;DHT22;47726;52.766;6.606;2022-11-20T08:41:32;2.20;99.90
61807;DHT22;47726;52.766;6.606;2022-11-20T08:44:06;2.20;99.90
61807;DHT22;47726;52.766;6.606;2022-11-20T08:46:34;2.30;99.90
61807;DHT22;47726;52.766;6.606;2022-11-20T08:49:05;2.30;99.90
61807;DHT22;47726;52.766;6.606;2022-11-20T08:51:32;2.30;99.90
61807;DHT22;47726;52.766;6.606;2022-11-20T08:53:58;2.30;99.90
61807;DHT22;47726;52.766;6.606;2022-11-20T08:56:24;2.30;99.90
61807;DHT22;47726;52.766;6.606;2022-11-20T08:58:50;2.30;99.90
61807;DHT22;47726;52.766;6.606;2022-11-20T09:01:20;2.40;99.90
61807;DHT22;47726;52.766;6.606;2022-11-20T09:03:46;2.60;99.90
61807;DHT22;47726;52.766;6.606;2022-11-20T09:06:12;2.90;99.90
61807;DHT22;47726;52.766;6.606;2022-11-20T09:08:38;3.10;99.90
61807;DHT22;47726;52.766;6.606;2022-11-20T09:11:05;3.40;99.90
61807;DHT22;47726;52.766;6.606;2022-11-20T09:13:32;3.60;99.90
61807;DHT22;47726;52.766;6.606;2022-11-20T09:16:04;3.80;99.90
61807;DHT22;47726;52.766;6.606;2022-11-20T09:18:30;4.10;99.90
61807;DHT22;47726;52.766;6.606;2022-11-20T09:21:03;4.20;99.90
61807;DHT22;47726;52.766;6.606;2022-11-20T09:23:34;4.40;99.90
61807;DHT22;47726;52.766;6.606;2022-11-20T09:26:05;4.60;99.90
61807;DHT22;47726;52.766;6.606;2022-11-20T09:28:31;4.80;99.90
61807;DHT22;47726;52.766;6.606;2022-11-20T09:30:57;4.90;99.90
61807;DHT22;47726;52.766;6.606;2022-11-20T09:33:23;5.00;99.90
61807;DHT22;47726;52.766;6.606;2022-11-20T09:35:49;5.20;99.90
61807;DHT22;47726;52.766;6.606;2022-11-20T09:38:14;5.30;99.90
61807;DHT22;47726;52.766;6.606;2022-11-20T09:40:56;5.30;99.90
61807;DHT22;47726;52.766;6.606;2022-11-20T09:48:42;5.30;99.90
61807;DHT22;47726;52.766;6.606;2022-11-20T09:53:53;5.30;99.90
61807;DHT22;47726;52.766;6.606;2022-11-20T09:56:23;5.30;99.90
61807;DHT22;47726;52.766;6.606;2022-11-20T09:58:54;5.30;99.90
61807;DHT22;47726;52.766;6.606;2022-11-20T10:01:23;5.30;99.90
61807;DHT22;47726;52.766;6.606;2022-11-20T10:04:27;5.30;99.90
61807;DHT22;47726;52.766;6.606;2022-11-20T10:07:13;5.20;99.90
61807;DHT22;47726;52.766;6.606;2022-11-20T10:09:51;5.20;99.90
61807;DHT22;47726;52.766;6.606;2022-11-20T10:15:15;5.20;99.90
61807;DHT22;47726;52.766;6.606;2022-11-20T10:24:23;5.10;99.90
61807;DHT22;47726;52.766;6.606;2022-11-20T10:29:16;5.20;99.90
61807;DHT22;47726;52.766;6.606;2022-11-20T10:31:44;5.20;99.90
61807;DHT22;47726;52.766;6.606;2022-11-20T10:36:54;5.30;99.90
61807;DHT22;47726;52.766;6.606;2022-11-20T10:41:56;5.50;99.90
61807;DHT22;47726;52.766;6.606;2022-11-20T10:44:26;5.60;99.90
61807;DHT22;47726;52.766;6.606;2022-11-20T10:47:18;5.70;99.90
61807;DHT22;47726;52.766;6.606;2022-11-20T10:49:53;5.90;99.90
61807;DHT22;47726;52.766;6.606;2022-11-20T10:58:04;6.20;99.90
61807;DHT22;47726;52.766;6.606;2022-11-20T11:00:35;6.30;99.90
61807;DHT22;47726;52.766;6.606;2022-11-20T11:03:01;6.40;99.90
61807;DHT22;47726;52.766;6.606;2022-11-20T11:05:50;6.50;99.90
61807;DHT22;47726;52.766;6.606;2022-11-20T11:08:19;6.70;99.90
61807;DHT22;47726;52.766;6.606;2022-11-20T11:13:24;7.00;99.90
61807;DHT22;47726;52.766;6.606;2022-11-20T11:15:50;7.20;99.90
61807;DHT22;47726;52.766;6.606;2022-11-20T11:18:30;7.30;99.90
61807;DHT22;47726;52.766;6.606;2022-11-20T11:20:59;7.40;99.90
61807;DHT22;47726;52.766;6.606;2022-11-20T11:23:38;7.50;99.90
61807;DHT22;47726;52.766;6.606;2022-11-20T11:26:06;7.50;99.90
61807;DHT22;47726;52.766;6.606;2022-11-20T11:28:33;7.50;99.90
61807;DHT22;47726;52.766;6.606;2022-11-20T11:30:58;7.50;99.90
61807;DHT22;47726;52.766;6.606;2022-11-20T11:33:25;7.50;99.90
61807;DHT22;47726;52.766;6.606;2022-11-20T11:35:56;7.50;99.90
61807;DHT22;47726;52.766;6.606;2022-11-20T11:38:43;7.50;99.90
61807;DHT22;47726;52.766;6.606;2022-11-20T11:41:20;7.50;99.90
61807;DHT22;47726;52.766;6.606;2022-11-20T11:43:53;7.60;99.90
61807;DHT22;47726;52.766;6.606;2022-11-20T11:46:39;7.60;99.90
61807;DHT22;47726;52.766;6.606;2022-11-20T11:51:46;7.50;99.90
61807;DHT22;47726;52.766;6.606;2022-11-20T11:54:23;7.40;99.90
61807;DHT22;47726;52.766;6.606;2022-11-20T11:56:51;7.40;99.90
61807;DHT22;47726;52.766;6.606;2022-11-20T12:02:36;7.40;99.90
61807;DHT22;47726;52.766;6.606;2022-11-20T12:12:59;7.20;99.90
61807;DHT22;47726;52.766;6.606;2022-11-20T12:15:30;7.10;99.90
61807;DHT22;47726;52.766;6.606;2022-11-20T12:17:56;7.10;99.90
61807;DHT22;47726;52.766;6.606;2022-11-20T12:20:38;7.00;99.90
61807;DHT22;47726;52.766;6.606;2022-11-20T12:23:14;6.90;99.90
61807;DHT22;47726;52.766;6.606;2022-11-20T12:25:44;6.80;99.90
61807;DHT22;47726;52.766;6.606;2022-11-20T12:28:40;6.80;99.90
61807;DHT22;47726;52.766;6.606;2022-11-20T12:34:01;6.70;99.90
61807;DHT22;47726;52.766;6.606;2022-11-20T12:36:39;6.70;99.90
61807;DHT22;47726;52.766;6.606;2022-11-20T12:39:22;6.60;99.90
61807;DHT22;47726;52.766;6.606;2022-11-20T12:41:55;6.50;99.90
61807;DHT22;47726;52.766;6.606;2022-11-20T12:59:06;6.20;99.90
61807;DHT22;47726;52.766;6.606;2022-11-20T13:01:49;6.10;99.90
61807;DHT22;47726;52.766;6.606;2022-11-20T13:07:09;5.90;99.90
61807;DHT22;47726;52.766;6.606;2022-11-20T13:09:36;5.80;99.90
61807;DHT22;47726;52.766;6.606;2022-11-20T13:12:24;5.80;99.90
61807;DHT22;47726;52.766;6.606;2022-11-20T13:17:38;5.70;99.90
61807;DHT22;47726;52.766;6.606;2022-11-20T13:20:15;5.70;99.90
61807;DHT22;47726;52.766;6.606;2022-11-20T13:22:52;5.60;99.90
61807;DHT22;47726;52.766;6.606;2022-11-20T13:27:52;5.60;99.90
61807;DHT22;47726;52.766;6.606;2022-11-20T13:30:21;5.60;99.90
61807;DHT22;47726;52.766;6.606;2022-11-20T13:35:36;5.60;99.90
61807;DHT22;47726;52.766;6.606;2022-11-20T13:38:14;5.60;99.90
61807;DHT22;47726;52.766;6.606;2022-11-20T13:40:56;5.50;99.90
61807;DHT22;47726;52.766;6.606;2022-11-20T13:43:40;5.60;99.90
61807;DHT22;47726;52.766;6.606;2022-11-20T13:46:08;5.50;99.90
61807;DHT22;47726;52.766;6.606;2022-11-20T13:48:40;5.50;99.90
61807;DHT22;47726;52.766;6.606;2022-11-20T13:51:37;5.40;99.90
61807;DHT22;47726;52.766;6.606;2022-11-20T13:54:28;5.40;99.90
61807;DHT22;47726;52.766;6.606;2022-11-20T13:59:58;5.40;99.90
61807;DHT22;47726;52.766;6.606;2022-11-20T14:02:29;5.40;99.90
61807;DHT22;47726;52.766;6.606;2022-11-20T14:04:57;5.30;99.90
61807;DHT22;47726;52.766;6.606;2022-11-20T14:07:31;5.30;99.90
61807;DHT22;47726;52.766;6.606;2022-11-20T14:09:58;5.30;99.90
61807;DHT22;47726;52.766;6.606;2022-11-20T14:12:30;5.30;99.90
61807;DHT22;47726;52.766;6.606;2022-11-20T14:14:55;5.30;99.90
61807;DHT22;47726;52.766;6.606;2022-11-20T14:17:32;5.30;99.90
61807;DHT22;47726;52.766;6.606;2022-11-20T14:20:02;5.30;99.90
61807;DHT22;47726;52.766;6.606;2022-11-20T14:22:29;5.30;99.90
61807;DHT22;47726;52.766;6.606;2022-11-20T14:25:19;5.20;99.90
61807;DHT22;47726;52.766;6.606;2022-11-20T14:27:52;5.20;99.90
61807;DHT22;47726;52.766;6.606;2022-11-20T14:30:24;5.20;99.90
61807;DHT22;47726;52.766;6.606;2022-11-20T14:32:51;5.20;99.90
61807;DHT22;47726;52.766;6.606;2022-11-20T14:35:25;5.10;99.90
61807;DHT22;47726;52.766;6.606;2022-11-20T14:37:52;5.10;99.90
61807;DHT22;47726;52.766;6.606;2022-11-20T14:40:31;5.10;99.90
61807;DHT22;47726;52.766;6.606;2022-11-20T14:43:00;5.10;99.90
61807;DHT22;47726;52.766;6.606;2022-11-20T14:45:26;5.10;99.90
61807;DHT22;47726;52.766;6.606;2022-11-20T14:47:55;5.00;99.90
61807;DHT22;47726;52.766;6.606;2022-11-20T14:50:23;5.00;99.90
61807;DHT22;47726;52.766;6.606;2022-11-20T14:52:54;5.00;99.90
61807;DHT22;47726;52.766;6.606;2022-11-20T14:55:33;5.00;99.90
61807;DHT22;47726;52.766;6.606;2022-11-20T14:58:02;5.00;99.90
61807;DHT22;47726;52.766;6.606;2022-11-20T15:00:30;5.00;99.90
61807;DHT22;47726;52.766;6.606;2022-11-20T15:02:56;4.90;99.90
61807;DHT22;47726;52.766;6.606;2022-11-20T15:05:25;4.90;99.90
61807;DHT22;47726;52.766;6.606;2022-11-20T15:08:05;4.90;99.90
61807;DHT22;47726;52.766;6.606;2022-11-20T15:10:31;4.90;99.90
61807;DHT22;47726;52.766;6.606;2022-11-20T15:13:04;4.90;99.90
61807;DHT22;47726;52.766;6.606;2022-11-20T15:15:39;4.80;99.90
61807;DHT22;47726;52.766;6.606;2022-11-20T15:18:12;4.80;99.90
61807;DHT22;47726;52.766;6.606;2022-11-20T15:20:38;4.80;99.90
61807;DHT22;47726;52.766;6.606;2022-11-20T15:23:14;4.80;99.90
61807;DHT22;47726;52.766;6.606;2022-11-20T15:25:41;4.70;99.90
61807;DHT22;47726;52.766;6.606;2022-11-20T15:30:45;4.70;99.90
61807;DHT22;47726;52.766;6.606;2022-11-20T15:33:11;4.70;99.90
61807;DHT22;47726;52.766;6.606;2022-11-20T15:35:37;4.70;99.90
61807;DHT22;47726;52.766;6.606;2022-11-20T15:38:02;4.70;99.90
61807;DHT22;47726;52.766;6.606;2022-11-20T15:40:28;4.60;99.90
61807;DHT22;47726;52.766;6.606;2022-11-20T15:42:53;4.60;99.90
61807;DHT22;47726;52.766;6.606;2022-11-20T15:45:31;4.60;99.90
61807;DHT22;47726;52.766;6.606;2022-11-20T15:47:59;4.60;99.90
61807;DHT22;47726;52.766;6.606;2022-11-20T15:50:35;4.60;99.90
61807;DHT22;47726;52.766;6.606;2022-11-20T15:53:02;4.50;99.90
61807;DHT22;47726;52.766;6.606;2022-11-20T15:55:27;4.50;99.90
61807;DHT22;47726;52.766;6.606;2022-11-20T15:57:53;4.50;99.90
61807;DHT22;47726;52.766;6.606;2022-11-20T16:00:19;4.50;99.90
61807;DHT22;47726;52.766;6.606;2022-11-20T16:02:44;4.50;99.90
61807;DHT22;47726;52.766;6.606;2022-11-20T16:05:11;4.50;99.90
61807;DHT22;47726;52.766;6.606;2022-11-20T16:07:38;4.50;99.90
61807;DHT22;47726;52.766;6.606;2022-11-20T16:10:04;4.50;99.90
61807;DHT22;47726;52.766;6.606;2022-11-20T16:12:30;4.40;99.90
61807;DHT22;47726;52.766;6.606;2022-11-20T16:15:14;4.50;99.90
61807;DHT22;47726;52.766;6.606;2022-11-20T16:17:58;4.40;99.90
61807;DHT22;47726;52.766;6.606;2022-11-20T16:20:23;4.40;99.90
61807;DHT22;47726;52.766;6.606;2022-11-20T16:22:49;4.40;99.90
61807;DHT22;47726;52.766;6.606;2022-11-20T16:25:15;4.40;99.90
61807;DHT22;47726;52.766;6.606;2022-11-20T16:27:40;4.40;99.90
61807;DHT22;47726;52.766;6.606;2022-11-20T16:30:06;4.40;99.90
61807;DHT22;47726;52.766;6.606;2022-11-20T16:32:32;4.40;99.90
61807;DHT22;47726;52.766;6.606;2022-11-20T16:34:58;4.30;99.90
61807;DHT22;47726;52.766;6.606;2022-11-20T16:37:24;4.30;99.90
61807;DHT22;47726;52.766;6.606;2022-11-20T16:39:49;4.30;99.90
61807;DHT22;47726;52.766;6.606;2022-11-20T16:42:15;4.30;99.90
61807;DHT22;47726;52.766;6.606;2022-11-20T16:44:40;4.30;99.90
61807;DHT22;47726;52.766;6.606;2022-11-20T16:47:06;4.30;99.90
61807;DHT22;47726;52.766;6.606;2022-11-20T16:49:32;4.30;99.90
61807;DHT22;47726;52.766;6.606;2022-11-20T16:51:58;4.30;99.90
61807;DHT22;47726;52.766;6.606;2022-11-20T16:54:24;4.30;99.90
61807;DHT22;47726;52.766;6.606;2022-11-20T16:56:49;4.30;99.90
61807;DHT22;47726;52.766;6.606;2022-11-20T16:59:18;4.30;99.90
61807;DHT22;47726;52.766;6.606;2022-11-20T17:01:43;4.30;99.90
61807;DHT22;47726;52.766;6.606;2022-11-20T17:04:09;4.20;99.90
61807;DHT22;47726;52.766;6.606;2022-11-20T17:06:37;4.20;99.90
61807;DHT22;47726;52.766;6.606;2022-11-20T17:09:04;4.20;99.90
61807;DHT22;47726;52.766;6.606;2022-11-20T17:11:30;4.20;99.90
61807;DHT22;47726;52.766;6.606;2022-11-20T17:13:58;4.20;99.90
61807;DHT22;47726;52.766;6.606;2022-11-20T17:16:32;4.20;99.90
61807;DHT22;47726;52.766;6.606;2022-11-20T17:18:58;4.20;99.90
61807;DHT22;47726;52.766;6.606;2022-11-20T17:21:25;4.20;99.90
61807;DHT22;47726;52.766;6.606;2022-11-20T17:23:51;4.20;99.90